This is the latest recevied weather packets stored in our database for station/object GW1497. If no packets are shown the sender has not sent any weather packets the latest 10 day(s).
| Time | Temp. | Humidity | Pressure | Rain* | Wind** | Luminosity | Snow |
|---|---|---|---|---|---|---|---|
| 1777480578 | 17.78° C | 91% | 1011.1 hPa | 2.79 mm | - | - | - |
| 1777480229 | 18.33° C | 88% | 1011.1 hPa | 2.79 mm | - | - | - |
| 1777477711 | 18.33° C | 90% | 1011.5 hPa | 2.79 mm | - | - | - |
| 1777476262 | 18.33° C | 93% | 1011.5 hPa | 2.79 mm | - | - | - |
| 1777475927 | 17.78° C | 94% | 1011.8 hPa | 2.79 mm | - | - | - |
| 1777474460 | 17.22° C | 96% | 1011.8 hPa | 2.79 mm | - | - | - |
| 1777469809 | 16.11° C | 98% | 1012.1 hPa | 2.79 mm | - | - | - |
| 1777469074 | 16.11° C | 99% | 1012.5 hPa | 2.79 mm | - | - | - |
| 1777467288 | 15.56° C | 99% | 1012.5 hPa | 2.79 mm | - | - | - |
| 1777466905 | 15.56° C | 99% | 1012.5 hPa | 2.79 mm | - | - | - |
| 1777465467 | 15.56° C | 99% | 1012.5 hPa | 2.79 mm | - | - | - |
| 1777464764 | 15.56° C | 99% | 1012.5 hPa | 2.54 mm | - | - | - |
| 1777464393 | 15.56° C | 99% | 1012.5 hPa | 2.29 mm | - | - | - |
| 1777462580 | 15.56° C | 97% | 1012.5 hPa | 1.27 mm | - | - | - |
| 1777453241 | 16.67° C | 92% | 1012.8 hPa | 0 mm | - | - | - |
| 1777452889 | 16.67° C | 93% | 1012.8 hPa | 0 mm | - | - | - |
| 1777452153 | 16.67° C | 93% | 1012.8 hPa | 0 mm | - | - | - |
| 1777448568 | 17.22° C | 90% | 1013.5 hPa | 0 mm | - | - | - |
| 1777448179 | 17.22° C | 90% | 1013.5 hPa | 0 mm | - | - | - |
| 1777445669 | 17.22° C | 89% | 1013.8 hPa | 0 mm | - | - | - |
| 1777445330 | 17.22° C | 90% | 1013.8 hPa | 0 mm | - | - | - |
| 1777443878 | 17.78° C | 87% | 1013.8 hPa | 0 mm | - | - | - |
| 1777442072 | 17.78° C | 86% | 1014.2 hPa | 0 mm | - | - | - |
| 1777441332 | 17.78° C | 87% | 1014.5 hPa | 0 mm | - | - | - |
| 1777438126 | 18.33° C | 85% | 1015.5 hPa | 0 mm | - | - | - |
* Rain since midnight (hover to see other rain measurements)
** Current wind speed in m/s (hover to see current wind gust speed)